Flight Track Log - Related Links

Times and Time Zones

All times are in EDT time to prevent confusion due to time zone crossing. See the RPA3159 flight status page for this flight to view local times or setup timezone preferences in your user account.

Time Position Orientation Groundspeed Altitude Reporting Facility
EDT Latitude Longitude Course Direction KTS MPH feet Rate Location/Type
Fri 11:43:56 AM 44.5183 -73.3308 198° South 285 328 6,900  Level Boston Center
Fri 11:44:00 AM 44.0479 -73.3063 194° South  Level FlightAware Approximate
Fri 11:44:56 AM 44.4431 -73.3531 192° South 307 353 10,000  Level Boston Center
Fri 11:45:00 AM 43.9420 -73.3416 193° South  Level FlightAware Approximate
Fri 11:45:56 AM 44.3533 -73.3778 191° South 321 369 10,000  Level Boston Center
Fri 11:46:00 AM 43.8368 -73.3800 195° South  Level FlightAware Approximate
Fri 11:46:56 AM 44.2594 -73.3967 188° South 340 391 13,100  Level Boston Center
Fri 11:47:00 AM 43.7318 -73.4194 195° South  Level FlightAware Approximate
Fri 11:47:56 AM 44.1656 -73.4039 183° South 340 391 16,100  Level Boston Center
Fri 11:48:00 AM 43.6271 -73.4604 198° South  Level FlightAware Approximate
Fri 11:48:56 AM 44.0922 -73.4692 213° Southwest 340 391 18,400  Level Boston Center
Fri 11:49:00 AM 43.5237 -73.5075 198° South  Level FlightAware Approximate
Fri 11:49:56 AM 44.0019 -73.5425 210° Southwest 361 415 19,400  Level Boston Center
Fri 11:51:08 AM 43.9136 -73.6103 209° Southwest 373 429 21,400 1,182 Climbing Boston Center
Fri 11:52:08 AM 43.7958 -73.7056 210° Southwest 373 429 22,000 300 Climbing Boston Center
Fri 11:53:08 AM 43.7161 -73.7642 208° Southwest 373 429 22,000  Level Boston Center
Fri 11:54:08 AM 43.6172 -73.8481 212° Southwest 378 435 22,000  Level Boston Center
Fri 11:55:08 AM 43.5289 -73.9147 209° Southwest 378 435 22,000  Level Boston Center
Fri 11:56:08 AM 43.4425 -73.9842 210° Southwest 378 435 22,000  Level Boston Center
Fri 11:57:08 AM 43.3622 -74.0478 210° Southwest 378 435 22,000  Level Boston Center
Fri 11:58:08 AM 43.2758 -74.1169 210° Southwest 378 435 22,000  Level Boston Center
Fri 11:59:08 AM 43.1894 -74.1858 210° Southwest 373 429 22,000  Level Boston Center
Fri 12:00:08 PM 43.1178 -74.2406 209° Southwest 368 423 22,000  Level Boston Center
Fri 12:01:08 PM 43.0142 -74.3200 209° Southwest 368 423 22,000  Level Boston Center
Fri 12:02:08 PM 42.9172 -74.3964 210° Southwest 368 423 22,000  Level Boston Center
Fri 12:03:20 PM 42.8283 -74.4644 209° Southwest 368 423 22,000  Level Boston Center
Fri 12:04:20 PM 42.7228 -74.5456 209° Southwest 368 423 22,000  Level Boston Center
Fri 12:05:20 PM 42.6339 -74.6131 209° Southwest 368 423 22,000  Level Boston Center
Fri 12:06:20 PM 42.5469 -74.6833 211° Southwest 368 423 22,000  Level Boston Center
Fri 12:07:20 PM 42.4581 -74.7506 209° Southwest 368 423 22,000  Level Boston Center
Fri 12:08:20 PM 42.3672 -74.8175 209° Southwest 368 423 22,000  Level Boston Center
Fri 12:09:20 PM 42.2803 -74.8844 210° Southwest 368 423 22,000  Level Boston Center
Fri 12:10:20 PM 42.1914 -74.9508 209° Southwest 368 423 22,000  Level Boston Center
Fri 12:11:20 PM 42.1042 -75.0231 212° Southwest 368 423 22,000 -938 Level Boston Center
Fri 12:13:32 PM 41.9189 -75.1722 211° Southwest 370 426 19,000 -952 Descending New York Center
Fri 12:14:29 PM 41.8414 -75.2367 212° Southwest 370 426 19,000 -667 Level New York Center
Fri 12:15:29 PM 41.7556 -75.3058 211° Southwest 370 426 17,700 -1,636 Descending New York Center
Fri 12:16:30 PM 41.6675 -75.3778 211° Southwest 360 414 15,700 -1,770 Descending New York Center
Fri 12:17:31 PM 41.5881 -75.4386 210° Southwest 345 397 14,100 -1,563 Descending New York Center
Fri 12:18:29 PM 41.5169 -75.4975 212° Southwest 345 397 12,600 -1,059 Descending New York Center
Fri 12:19:30 PM 41.4417 -75.5586 211° Southwest 332 382 12,000 -298 Descending New York Center
Fri 12:20:30 PM 41.3556 -75.6244 210° Southwest 332 382 12,000  Level New York Center
Fri 12:21:30 PM 41.2783 -75.6822 209° Southwest 327 376 12,000 -149 Level New York Center
Fri 12:22:31 PM 41.1883 -75.6894 183° South 327 376 11,700 -843 Descending New York Center
Fri 12:23:31 PM 41.0978 -75.6608 167° South 327 376 10,300 -864 Descending New York Center
Fri 12:24:29 PM 41.0158 -75.6303 164° South 332 382 10,000 -153 Descending New York Center
Fri 12:25:29 PM 40.9172 -75.5986 166° South 337 388 10,000  Level New York Center
Fri 12:26:31 PM 40.8269 -75.5647 164° South 332 382 10,000  Level New York Center
Fri 12:27:29 PM 40.7406 -75.5339 165° South 332 382 10,000  Level New York Center
Fri 12:28:29 PM 40.6503 -75.5003 164° South 337 388 10,000  Level New York Center
Fri 12:29:30 PM 40.5681 -75.4728 166° South 323 372 10,000  Level New York Center
Fri 12:30:31 PM 40.4836 -75.4453 166° South 312 359 10,000 -353 Level New York Center
Fri 12:31:29 PM 40.4119 -75.4103 160° South 312 359 9,300 -1,210 Descending New York Center
Fri 12:32:30 PM 40.3347 -75.3644 156° South 312 359 7,600 -1,140 Descending New York Center
Fri 12:33:30 PM 40.2492 -75.3125 155° Southeast 304 350 7,000 -645 Descending New York Center
Fri 12:34:31 PM 40.1892 -75.2461 140° Southeast 304 350 6,300 -496 Descending New York Center
Fri 12:35:31 PM 40.1214 -75.1628 137° Southeast 309 356 6,000 -196 Descending New York Center
Fri 12:36:03 PM 40.0833 -75.1167 137° Southeast 275 316 6,000 -65 Level Philadelphia TRACON
Fri 12:37:03 PM 40.0500 -75.0500 123° Southeast 225 259 5,900 -600 Descending Philadelphia TRACON
Fri 12:38:03 PM 40.0167 -74.9833 123° Southeast 213 245 4,800 -1,450 Descending Philadelphia TRACON
Fri 12:39:03 PM 39.9667 -74.9833 180° South 203 234 3,000 -1,150 Descending Philadelphia TRACON
Fri 12:40:03 PM 39.9333 -75.0333 229° Southwest 186 214 2,500 -450 Descending Philadelphia TRACON
Fri 12:41:03 PM 39.9000 -75.0833 229° Southwest 181 208 2,100 -595 Descending Philadelphia TRACON
Fri 12:42:04 PM 39.8833 -75.1500 252° West 152 175 1,300 -787 Descending Philadelphia TRACON

Login

Don't have an account? Register now (free) for customized features, flight alerts, and more!